Cavalier, ND

1:19 PM CDT on July 23, 2016 (GMT -0500)
Cavalier | | Change Station

Elev 892 ft 48.78 °N, 97.63 °W | Updated 4 minutes ago

Scattered Clouds
Scattered Clouds
66 °F
Feels Like 66 °F
N
8
Wind Variable Wind from ENE
Gusts 32 mph

Today
High -- | Low -- °F
--% Chance of Precip.
Yesterday
High -- | Low -- °F
Precip. -- in
Pressure 29.65 in
Visibility 10.0 miles
Clouds Few 500 ft
Few 1500 ft
Scattered Clouds 2500 ft
Dew Point 64 °F
Humidity 94%
Rainfall 0.84 in
Snow Depth Not available.
5:53 AM 9:20 PM
Waning Gibbous, 83% visible
METAR K2C8 231815Z AUTO 07007G28KT 020V120 10SM VCTS FEW005 FEW015 SCT025 19/18 A2965 RMK AO2 LTG DSNT ALQDS
Pressure 29.65 in
Visibility 10.0 miles
Clouds Few 500 ft
Few 1500 ft
Scattered Clouds 2500 ft
Dew Point 64 °F
Humidity 94%
Rainfall 0.84 in
Snow Depth Not available.
5:53 AM 9:20 PM
Waning Gibbous, 83% visible
METAR K2C8 231815Z AUTO 07007G28KT 020V120 10SM VCTS FEW005 FEW015 SCT025 19/18 A2965 RMK AO2 LTG DSNT ALQDS

10-Day Weather Forecast

Almanac

Astronomy

Jul. 23, 2016 Rise Set
Actual Time
Civil Twilight
Nautical Twilight
Astronomical Twilight
Moon
Length of Visible Light
Length of Day
Tomorrow will be .
, % of the Moon is Illuminated

Today's Extremes

State Highs State Lows

Community

WunderPhotos

Upload Photos

1,926,881 photos uploaded!

WunderBlog® & News

Nearby

Air Quality

  Air Quality AQ Index Pollutant
Not available.

Snow Depth

Station Depth Elevation

Earthquake Activity

City Distance Mag. Time & Date
Minimum magnitude displayed is 2.5.

Coastal Water Temperatures

Place Temperature

Stations

Nearby Weather Stations

Station Location Temp. Windchill Dew Point Humidity Wind Precip. Elev Updated Type
                   

Watches & Warnings

There are currently no watches in effect.